Weather History for Cairo, IL

Change the Weather History Date:

Sunday, January 29, 2012

  Actual Average Record
Temperature  
Mean Temperature 43 °F -  
Max Temperature 53 °F 43 °F 73 °F (2013)
Min Temperature 33 °F 26 °F 1 °F (1966)
Degree Days  
Heating Degree Days 22    
Moisture  
Dew Point 28 °F    
Average Humidity 58    
Maximum Humidity 75    
Minimum Humidity 41    
Precipitation  
Precipitation 0.00 in - - ()
Sea Level Pressure  
Sea Level Pressure 30.30 in    
Wind  
Wind Speed 8 mph (SSW)    
Max Wind Speed 16 mph    
Max Gust Speed 20 mph    
Visibility 10 miles    
Events      
Averages and records for this station are not official NWS values.
T = Trace of Precipitation, MM = Missing Value Source: NWS Daily Summary

Daily Weather History Graph

Daily Weather History Graph

Search for Another Location

Airport:

Trip Planner

Search our weather history database for the weather conditions in past years. The results will help you decide how hot, cold, wet, or windy it might be!

Date:

Astronomy

Jan. 29, 2012 Rise Set
Actual Time 7:02 AM CST 5:18 PM CST
Civil Twilight 6:34 AM CST 5:45 PM CST
Nautical Twilight 6:03 AM CST 6:16 PM CST
Astronomical Twilight 5:32 AM CST 6:47 PM CST
Moon 10:04 AM CST (1/29) 11:51 PM CST (1/29)
Length of Visible Light 11h 11m
Length of Day
10h 15m
Waxing Crescent, 37% of the Moon is Illuminated
Jan 29
Waxing Crescent
Jan 30
First Quarter
Feb 7
Full
Feb 14
Last Quarter
Feb 21
New

Hourly Weather History & Observations

Time (CST) Temp. Windchill Dew Point Humidity Pressure Visibility Wind Dir Wind Speed Gust Speed Precip Events Conditions
12:15 AM 35.6 °F 29.9 °F 24.8 °F 65% 30.35 in 10.0 mi SSW 6.9 mph - N/A   Clear
12:35 AM 35.6 °F 29.9 °F 24.8 °F 65% 30.34 in 10.0 mi SSW 6.9 mph - N/A   Clear
12:55 AM 35.6 °F 31.7 °F 24.8 °F 65% 30.34 in 10.0 mi SSW 4.6 mph - N/A   Clear
1:15 AM 35.6 °F 31.7 °F 24.8 °F 65% 30.33 in 10.0 mi SSW 4.6 mph - N/A   Clear
1:35 AM 35.6 °F 32.8 °F 24.8 °F 65% 30.33 in 10.0 mi SSW 3.5 mph - N/A   Clear
1:55 AM 35.6 °F 31.7 °F 24.8 °F 65% 30.32 in 10.0 mi South 4.6 mph - N/A   Clear
2:15 AM 33.8 °F 27.7 °F 26.6 °F 75% 30.32 in 10.0 mi South 6.9 mph - N/A   Clear
2:35 AM 35.6 °F 29.9 °F 26.6 °F 70% 30.32 in 10.0 mi South 6.9 mph - N/A   Clear
2:55 AM 35.6 °F 30.7 °F 26.6 °F 70% 30.32 in 10.0 mi South 5.8 mph - N/A   Clear
3:15 AM 35.6 °F 29.9 °F 26.6 °F 70% 30.31 in 10.0 mi South 6.9 mph - N/A   Clear
3:35 AM 35.6 °F 30.7 °F 26.6 °F 70% 30.31 in 10.0 mi SSW 5.8 mph - N/A   Clear
3:55 AM 37.4 °F 30.8 °F 24.8 °F 60% 30.31 in 10.0 mi SSW 9.2 mph - N/A   Clear
4:15 AM 37.4 °F 30.3 °F 24.8 °F 60% 30.31 in 10.0 mi SSW 10.4 mph - N/A   Clear
4:35 AM 37.4 °F 30.3 °F 24.8 °F 60% 30.31 in 10.0 mi SSW 10.4 mph - N/A   Clear
4:55 AM 35.6 °F 28.0 °F 24.8 °F 65% 30.31 in 10.0 mi SSW 10.4 mph - N/A   Clear
5:15 AM 35.6 °F 29.2 °F 24.8 °F 65% 30.32 in 10.0 mi SW 8.1 mph - N/A   Clear
5:35 AM 35.6 °F 29.2 °F 24.8 °F 65% 30.32 in 10.0 mi SW 8.1 mph - N/A   Clear
5:55 AM 35.6 °F 28.6 °F 24.8 °F 65% 30.32 in 10.0 mi SSW 9.2 mph - N/A   Clear
6:15 AM 35.6 °F 29.9 °F 24.8 °F 65% 30.32 in 10.0 mi SSW 6.9 mph - N/A   Clear
6:55 AM 35.6 °F 29.2 °F 24.8 °F 65% 30.32 in 10.0 mi SSW 8.1 mph - N/A   Clear
7:15 AM 35.6 °F 29.2 °F 24.8 °F 65% 30.32 in 10.0 mi South 8.1 mph - N/A   Clear
7:35 AM 35.6 °F 28.0 °F 24.8 °F 65% 30.32 in 10.0 mi SSW 10.4 mph - N/A   Clear
7:55 AM 37.4 °F 30.3 °F 24.8 °F 60% 30.32 in 10.0 mi SSW 10.4 mph - N/A   Clear
8:15 AM 37.4 °F 29.8 °F 24.8 °F 60% 30.32 in 10.0 mi SW 11.5 mph 16.1 mph N/A   Clear
8:35 AM 39.2 °F 33.6 °F 24.8 °F 56% 30.32 in 10.0 mi SW 8.1 mph - N/A   Clear
8:55 AM 39.2 °F 32.5 °F 26.6 °F 61% 30.32 in 10.0 mi SW 10.4 mph 18.4 mph N/A   Clear
9:15 AM 41.0 °F 35.8 °F 26.6 °F 57% 30.32 in 10.0 mi SW 8.1 mph - N/A   Clear
9:35 AM 41.0 °F 33.9 °F 26.6 °F 57% 30.32 in 10.0 mi SW 12.7 mph 17.3 mph N/A   Clear
9:55 AM 41.0 °F 33.9 °F 28.4 °F 61% 30.33 in 10.0 mi SW 12.7 mph - N/A   Clear
10:15 AM 42.8 °F 36.6 °F 28.4 °F 57% 30.32 in 10.0 mi WSW 11.5 mph - N/A   Clear
10:35 AM 44.6 °F 37.4 °F 28.4 °F 53% 30.32 in 10.0 mi SW 16.1 mph - N/A   Clear
10:55 AM 44.6 °F 38.8 °F 28.4 °F 53% 30.32 in 10.0 mi WSW 11.5 mph 18.4 mph N/A   Clear
11:15 AM 46.4 °F 40.7 °F 28.4 °F 50% 30.32 in 10.0 mi WSW 12.7 mph - N/A   Clear
11:55 AM 48.2 °F - 28.4 °F 46% 30.30 in 10.0 mi WSW 11.5 mph 16.1 mph N/A   Clear
12:15 PM 50.0 °F - 28.4 °F 43% 30.29 in 10.0 mi WSW 11.5 mph - N/A   Clear
12:35 PM 50.0 °F - 28.4 °F 43% 30.28 in 10.0 mi WSW 9.2 mph - N/A   Clear
12:55 PM 51.8 °F - 30.2 °F 44% 30.28 in 10.0 mi SW 12.7 mph - N/A   Clear
1:15 PM 51.8 °F - 30.2 °F 44% 30.27 in 10.0 mi SW 11.5 mph 18.4 mph N/A   Clear
1:35 PM 51.8 °F - 32.0 °F 47% 30.27 in 10.0 mi SW 11.5 mph 17.3 mph N/A   Clear
1:55 PM 51.8 °F - 32.0 °F 47% 30.28 in 10.0 mi SW 15.0 mph - N/A   Clear
2:15 PM 51.8 °F - 32.0 °F 47% 30.27 in 10.0 mi SW 10.4 mph 19.6 mph N/A   Clear
2:35 PM 51.8 °F - 32.0 °F 47% 30.27 in 10.0 mi SW 11.5 mph 17.3 mph N/A   Clear
2:55 PM 53.6 °F - 32.0 °F 44% 30.26 in 10.0 mi SSW 10.4 mph 19.6 mph N/A   Clear
3:15 PM 53.6 °F - 32.0 °F 44% 30.26 in 10.0 mi SW 10.4 mph 17.3 mph N/A   Clear
3:35 PM 53.6 °F - 32.0 °F 44% 30.27 in 10.0 mi SW 10.4 mph - N/A   Clear
3:55 PM 53.6 °F - 30.2 °F 41% 30.26 in 10.0 mi SSW 11.5 mph - N/A   Clear
4:15 PM 53.6 °F - 30.2 °F 41% 30.27 in 10.0 mi SW 8.1 mph - N/A   Clear
4:35 PM 53.6 °F - 30.2 °F 41% 30.27 in 10.0 mi SSW 6.9 mph - N/A   Mostly Cloudy
4:55 PM 51.8 °F - 30.2 °F 44% 30.27 in 10.0 mi South 4.6 mph - N/A   Scattered Clouds
5:15 PM 50.0 °F - 32.0 °F 50% 30.27 in 10.0 mi South 5.8 mph - N/A   Clear
5:35 PM 46.4 °F 43.5 °F 32.0 °F 57% 30.27 in 10.0 mi South 5.8 mph - N/A   Clear
6:15 PM 46.4 °F 44.3 °F 32.0 °F 57% 30.28 in 10.0 mi SSE 4.6 mph - N/A   Clear
6:35 PM 44.6 °F 42.2 °F 33.8 °F 66% 30.28 in 10.0 mi South 4.6 mph - N/A   Clear
6:55 PM 46.4 °F 45.2 °F 32.0 °F 57% 30.28 in 10.0 mi SSE 3.5 mph - N/A   Clear
7:15 PM 42.8 °F 41.1 °F 32.0 °F 66% 30.28 in 10.0 mi SSE 3.5 mph - N/A   Clear
7:35 PM 44.6 °F 42.2 °F 32.0 °F 61% 30.28 in 10.0 mi SSE 4.6 mph - N/A   Clear
7:55 PM 42.8 °F 40.1 °F 32.0 °F 66% 30.28 in 10.0 mi SSE 4.6 mph - N/A   Clear
8:15 PM 42.8 °F 40.1 °F 32.0 °F 66% 30.28 in 10.0 mi SSE 4.6 mph - N/A   Clear
8:35 PM 42.8 °F 39.3 °F 32.0 °F 66% 30.27 in 10.0 mi South 5.8 mph - N/A   Clear
8:55 PM 42.8 °F 39.3 °F 32.0 °F 66% 30.27 in 10.0 mi South 5.8 mph - N/A   Clear
9:15 PM 42.8 °F 40.1 °F 30.2 °F 61% 30.27 in 10.0 mi South 4.6 mph - N/A   Clear
9:35 PM 42.8 °F 40.1 °F 30.2 °F 61% 30.27 in 10.0 mi South 4.6 mph - N/A   Clear
9:55 PM 42.8 °F 41.1 °F 30.2 °F 61% 30.26 in 10.0 mi South 3.5 mph - N/A   Clear
10:15 PM 42.8 °F 41.1 °F 30.2 °F 61% 30.26 in 10.0 mi South 3.5 mph - N/A   Clear
10:35 PM 41.0 °F 39.0 °F 30.2 °F 65% 30.26 in 10.0 mi South 3.5 mph - N/A   Clear
10:55 PM 39.2 °F - 30.2 °F 70% 30.26 in 10.0 mi Calm Calm - N/A   Clear
11:15 PM 39.2 °F - 30.2 °F 70% 30.26 in 10.0 mi Calm Calm - N/A   Clear
11:35 PM 37.4 °F 34.9 °F 28.4 °F 70% 30.26 in 10.0 mi SSE 3.5 mph - N/A   Clear
11:55 PM 37.4 °F - 30.2 °F 75% 30.25 in 10.0 mi Calm Calm - N/A   Clear